sensor_id;sensor_type;location;lat;lon;timestamp;P1;durP1;ratioP1;P2;durP2;ratioP2
305;SDS011;137;48.578;9.180;2023-12-20T00:00:55;1.23;;;1.13;;
305;SDS011;137;48.578;9.180;2023-12-20T00:03:22;2.17;;;1.30;;
305;SDS011;137;48.578;9.180;2023-12-20T00:05:51;1.30;;;1.10;;
305;SDS011;137;48.578;9.180;2023-12-20T00:08:18;1.73;;;1.17;;
305;SDS011;137;48.578;9.180;2023-12-20T00:10:44;2.40;;;1.60;;
305;SDS011;137;48.578;9.180;2023-12-20T00:13:11;1.63;;;1.23;;
305;SDS011;137;48.578;9.180;2023-12-20T00:15:38;1.70;;;1.13;;
305;SDS011;137;48.578;9.180;2023-12-20T00:18:05;1.30;;;1.00;;
305;SDS011;137;48.578;9.180;2023-12-20T00:20:32;2.23;;;2.03;;
305;SDS011;137;48.578;9.180;2023-12-20T00:23:00;1.80;;;1.30;;
305;SDS011;137;48.578;9.180;2023-12-20T00:25:27;1.37;;;1.07;;
305;SDS011;137;48.578;9.180;2023-12-20T00:27:54;1.10;;;0.90;;
305;SDS011;137;48.578;9.180;2023-12-20T00:30:20;1.63;;;1.20;;
305;SDS011;137;48.578;9.180;2023-12-20T00:32:47;1.67;;;1.10;;
305;SDS011;137;48.578;9.180;2023-12-20T00:35:14;1.97;;;1.17;;
305;SDS011;137;48.578;9.180;2023-12-20T00:37:42;1.20;;;0.93;;
305;SDS011;137;48.578;9.180;2023-12-20T00:40:11;1.57;;;1.07;;
305;SDS011;137;48.578;9.180;2023-12-20T00:42:38;3.50;;;0.97;;
305;SDS011;137;48.578;9.180;2023-12-20T00:45:05;1.50;;;1.00;;
305;SDS011;137;48.578;9.180;2023-12-20T00:47:32;2.60;;;1.20;;
305;SDS011;137;48.578;9.180;2023-12-20T00:49:59;1.37;;;1.03;;
305;SDS011;137;48.578;9.180;2023-12-20T00:52:25;1.63;;;0.97;;
305;SDS011;137;48.578;9.180;2023-12-20T00:54:52;1.57;;;1.17;;
305;SDS011;137;48.578;9.180;2023-12-20T00:57:20;1.40;;;1.10;;
305;SDS011;137;48.578;9.180;2023-12-20T00:59:47;2.03;;;1.00;;
305;SDS011;137;48.578;9.180;2023-12-20T01:02:13;1.77;;;1.10;;
305;SDS011;137;48.578;9.180;2023-12-20T01:04:40;1.87;;;1.10;;
305;SDS011;137;48.578;9.180;2023-12-20T01:07:07;1.57;;;1.20;;
305;SDS011;137;48.578;9.180;2023-12-20T01:09:34;1.27;;;1.00;;
305;SDS011;137;48.578;9.180;2023-12-20T01:12:01;1.73;;;1.07;;
305;SDS011;137;48.578;9.180;2023-12-20T01:14:29;1.33;;;1.10;;
305;SDS011;137;48.578;9.180;2023-12-20T01:16:55;1.30;;;0.97;;
305;SDS011;137;48.578;9.180;2023-12-20T01:19:22;2.23;;;1.00;;
305;SDS011;137;48.578;9.180;2023-12-20T01:21:50;1.30;;;1.00;;
305;SDS011;137;48.578;9.180;2023-12-20T01:24:17;1.27;;;0.97;;
305;SDS011;137;48.578;9.180;2023-12-20T01:26:43;1.00;;;0.70;;
305;SDS011;137;48.578;9.180;2023-12-20T01:29:10;2.23;;;0.97;;
305;SDS011;137;48.578;9.180;2023-12-20T01:31:38;1.27;;;0.97;;
305;SDS011;137;48.578;9.180;2023-12-20T01:34:05;1.57;;;0.97;;
305;SDS011;137;48.578;9.180;2023-12-20T01:36:32;3.33;;;0.90;;
305;SDS011;137;48.578;9.180;2023-12-20T01:38:59;1.40;;;1.03;;
305;SDS011;137;48.578;9.180;2023-12-20T01:41:25;2.17;;;1.20;;
305;SDS011;137;48.578;9.180;2023-12-20T01:43:52;1.77;;;1.00;;
305;SDS011;137;48.578;9.180;2023-12-20T01:46:19;1.23;;;0.70;;
305;SDS011;137;48.578;9.180;2023-12-20T01:48:48;1.30;;;0.80;;
305;SDS011;137;48.578;9.180;2023-12-20T01:51:15;1.20;;;0.80;;
305;SDS011;137;48.578;9.180;2023-12-20T01:53:42;1.43;;;1.33;;
305;SDS011;137;48.578;9.180;2023-12-20T01:56:10;1.23;;;0.90;;
305;SDS011;137;48.578;9.180;2023-12-20T01:58:37;2.03;;;1.00;;
305;SDS011;137;48.578;9.180;2023-12-20T02:01:08;1.00;;;0.77;;
305;SDS011;137;48.578;9.180;2023-12-20T02:03:36;1.40;;;0.73;;
305;SDS011;137;48.578;9.180;2023-12-20T02:06:04;1.10;;;0.90;;
305;SDS011;137;48.578;9.180;2023-12-20T02:08:31;1.10;;;1.00;;
305;SDS011;137;48.578;9.180;2023-12-20T02:10:58;1.90;;;1.00;;
305;SDS011;137;48.578;9.180;2023-12-20T02:13:25;1.50;;;1.10;;
305;SDS011;137;48.578;9.180;2023-12-20T02:15:52;1.20;;;1.00;;
305;SDS011;137;48.578;9.180;2023-12-20T02:18:20;1.20;;;0.90;;
305;SDS011;137;48.578;9.180;2023-12-20T02:20:47;1.10;;;0.87;;
305;SDS011;137;48.578;9.180;2023-12-20T02:23:15;1.97;;;1.57;;
305;SDS011;137;48.578;9.180;2023-12-20T02:25:42;1.80;;;1.00;;
305;SDS011;137;48.578;9.180;2023-12-20T02:28:08;1.47;;;1.00;;
305;SDS011;137;48.578;9.180;2023-12-20T02:30:35;2.07;;;1.30;;
305;SDS011;137;48.578;9.180;2023-12-20T02:33:02;1.10;;;0.90;;
305;SDS011;137;48.578;9.180;2023-12-20T02:35:33;1.30;;;1.00;;
305;SDS011;137;48.578;9.180;2023-12-20T02:38:00;1.70;;;1.03;;
305;SDS011;137;48.578;9.180;2023-12-20T02:40:28;1.63;;;1.30;;
305;SDS011;137;48.578;9.180;2023-12-20T02:42:55;1.30;;;1.20;;
305;SDS011;137;48.578;9.180;2023-12-20T02:45:21;1.63;;;1.30;;
305;SDS011;137;48.578;9.180;2023-12-20T02:47:48;1.43;;;1.30;;
305;SDS011;137;48.578;9.180;2023-12-20T02:50:15;1.77;;;1.40;;
305;SDS011;137;48.578;9.180;2023-12-20T02:52:44;1.60;;;1.30;;
305;SDS011;137;48.578;9.180;2023-12-20T02:55:11;2.17;;;1.50;;
305;SDS011;137;48.578;9.180;2023-12-20T02:57:39;1.67;;;1.33;;
305;SDS011;137;48.578;9.180;2023-12-20T03:00:07;1.20;;;1.00;;
305;SDS011;137;48.578;9.180;2023-12-20T03:02:34;1.70;;;1.40;;
305;SDS011;137;48.578;9.180;2023-12-20T03:05:01;1.73;;;1.40;;
305;SDS011;137;48.578;9.180;2023-12-20T03:07:28;1.73;;;1.30;;
305;SDS011;137;48.578;9.180;2023-12-20T03:09:55;1.47;;;1.10;;
305;SDS011;137;48.578;9.180;2023-12-20T03:12:21;1.67;;;1.57;;
305;SDS011;137;48.578;9.180;2023-12-20T03:14:50;1.50;;;1.20;;
305;SDS011;137;48.578;9.180;2023-12-20T03:17:16;1.30;;;1.17;;
305;SDS011;137;48.578;9.180;2023-12-20T03:19:43;1.40;;;1.07;;
305;SDS011;137;48.578;9.180;2023-12-20T03:22:10;2.20;;;1.50;;
305;SDS011;137;48.578;9.180;2023-12-20T03:24:37;2.03;;;1.20;;
305;SDS011;137;48.578;9.180;2023-12-20T03:27:04;1.20;;;1.10;;
305;SDS011;137;48.578;9.180;2023-12-20T03:29:31;1.20;;;1.10;;
305;SDS011;137;48.578;9.180;2023-12-20T03:31:59;1.30;;;1.10;;
305;SDS011;137;48.578;9.180;2023-12-20T03:34:26;1.27;;;0.90;;
305;SDS011;137;48.578;9.180;2023-12-20T03:36:54;1.13;;;1.03;;
305;SDS011;137;48.578;9.180;2023-12-20T03:41:52;1.20;;;0.90;;
305;SDS011;137;48.578;9.180;2023-12-20T03:44:19;1.80;;;1.23;;
305;SDS011;137;48.578;9.180;2023-12-20T03:46:45;1.10;;;0.97;;
305;SDS011;137;48.578;9.180;2023-12-20T03:49:15;1.50;;;1.10;;
305;SDS011;137;48.578;9.180;2023-12-20T03:51:42;2.17;;;0.80;;
305;SDS011;137;48.578;9.180;2023-12-20T03:54:08;1.40;;;0.90;;
305;SDS011;137;48.578;9.180;2023-12-20T03:56:35;1.00;;;0.70;;
305;SDS011;137;48.578;9.180;2023-12-20T03:59:02;1.30;;;0.60;;
305;SDS011;137;48.578;9.180;2023-12-20T04:01:29;1.10;;;0.70;;
305;SDS011;137;48.578;9.180;2023-12-20T04:03:55;1.70;;;0.90;;
305;SDS011;137;48.578;9.180;2023-12-20T04:06:23;1.10;;;0.77;;
305;SDS011;137;48.578;9.180;2023-12-20T04:08:50;0.87;;;0.50;;
305;SDS011;137;48.578;9.180;2023-12-20T04:11:17;1.10;;;0.80;;
305;SDS011;137;48.578;9.180;2023-12-20T04:13:43;1.10;;;0.80;;
305;SDS011;137;48.578;9.180;2023-12-20T04:16:10;1.23;;;0.60;;
305;SDS011;137;48.578;9.180;2023-12-20T04:18:37;1.27;;;0.80;;
305;SDS011;137;48.578;9.180;2023-12-20T04:21:04;0.90;;;0.60;;
305;SDS011;137;48.578;9.180;2023-12-20T04:23:33;1.77;;;0.63;;
305;SDS011;137;48.578;9.180;2023-12-20T04:25:59;1.10;;;0.70;;
305;SDS011;137;48.578;9.180;2023-12-20T04:28:26;0.87;;;0.50;;
305;SDS011;137;48.578;9.180;2023-12-20T04:30:55;0.80;;;0.50;;
305;SDS011;137;48.578;9.180;2023-12-20T04:33:22;0.90;;;0.60;;
305;SDS011;137;48.578;9.180;2023-12-20T04:35:48;1.30;;;0.50;;
305;SDS011;137;48.578;9.180;2023-12-20T04:38:15;0.90;;;0.50;;
305;SDS011;137;48.578;9.180;2023-12-20T04:40:43;3.13;;;0.60;;
305;SDS011;137;48.578;9.180;2023-12-20T04:43:10;0.90;;;0.50;;
305;SDS011;137;48.578;9.180;2023-12-20T04:45:37;0.90;;;0.50;;
305;SDS011;137;48.578;9.180;2023-12-20T04:48:04;0.90;;;0.57;;
305;SDS011;137;48.578;9.180;2023-12-20T04:50:31;0.90;;;0.50;;
305;SDS011;137;48.578;9.180;2023-12-20T04:52:58;1.00;;;0.60;;
305;SDS011;137;48.578;9.180;2023-12-20T04:55:25;0.90;;;0.57;;
305;SDS011;137;48.578;9.180;2023-12-20T04:57:53;0.90;;;0.50;;
305;SDS011;137;48.578;9.180;2023-12-20T05:00:21;0.90;;;0.50;;
305;SDS011;137;48.578;9.180;2023-12-20T05:02:48;1.00;;;0.70;;
305;SDS011;137;48.578;9.180;2023-12-20T05:05:15;1.10;;;0.90;;
305;SDS011;137;48.578;9.180;2023-12-20T05:07:43;0.90;;;0.70;;
305;SDS011;137;48.578;9.180;2023-12-20T05:10:09;1.00;;;0.67;;
305;SDS011;137;48.578;9.180;2023-12-20T05:12:36;1.20;;;0.70;;
305;SDS011;137;48.578;9.180;2023-12-20T05:15:05;1.00;;;0.67;;
305;SDS011;137;48.578;9.180;2023-12-20T05:17:33;1.30;;;1.10;;
305;SDS011;137;48.578;9.180;2023-12-20T05:20:00;1.40;;;1.23;;
305;SDS011;137;48.578;9.180;2023-12-20T05:22:26;1.70;;;0.93;;
305;SDS011;137;48.578;9.180;2023-12-20T05:24:53;1.67;;;0.80;;
305;SDS011;137;48.578;9.180;2023-12-20T05:27:20;1.10;;;0.70;;
305;SDS011;137;48.578;9.180;2023-12-20T05:29:47;1.50;;;1.00;;
305;SDS011;137;48.578;9.180;2023-12-20T05:32:16;1.53;;;1.17;;
305;SDS011;137;48.578;9.180;2023-12-20T05:34:43;1.10;;;0.80;;
305;SDS011;137;48.578;9.180;2023-12-20T05:37:10;1.10;;;1.00;;
305;SDS011;137;48.578;9.180;2023-12-20T05:39:37;0.90;;;0.53;;
305;SDS011;137;48.578;9.180;2023-12-20T05:42:04;1.10;;;0.70;;
305;SDS011;137;48.578;9.180;2023-12-20T05:44:30;1.10;;;0.63;;
305;SDS011;137;48.578;9.180;2023-12-20T05:46:57;1.27;;;0.80;;
305;SDS011;137;48.578;9.180;2023-12-20T05:49:25;1.00;;;0.77;;
305;SDS011;137;48.578;9.180;2023-12-20T05:51:52;1.03;;;0.60;;
305;SDS011;137;48.578;9.180;2023-12-20T05:54:19;1.00;;;0.63;;
305;SDS011;137;48.578;9.180;2023-12-20T05:56:46;0.97;;;0.50;;
305;SDS011;137;48.578;9.180;2023-12-20T05:59:13;1.10;;;0.60;;
305;SDS011;137;48.578;9.180;2023-12-20T06:01:40;1.40;;;0.57;;
305;SDS011;137;48.578;9.180;2023-12-20T06:04:06;1.20;;;0.70;;
305;SDS011;137;48.578;9.180;2023-12-20T06:06:35;0.97;;;0.53;;
305;SDS011;137;48.578;9.180;2023-12-20T06:09:07;1.00;;;0.70;;
305;SDS011;137;48.578;9.180;2023-12-20T06:11:33;1.00;;;0.60;;
305;SDS011;137;48.578;9.180;2023-12-20T06:14:00;1.30;;;0.90;;
305;SDS011;137;48.578;9.180;2023-12-20T06:16:27;0.90;;;0.70;;
305;SDS011;137;48.578;9.180;2023-12-20T06:18:53;1.20;;;0.90;;
305;SDS011;137;48.578;9.180;2023-12-20T06:21:20;1.20;;;0.80;;
305;SDS011;137;48.578;9.180;2023-12-20T06:23:48;1.10;;;0.70;;
305;SDS011;137;48.578;9.180;2023-12-20T06:26:15;1.43;;;0.73;;
305;SDS011;137;48.578;9.180;2023-12-20T06:28:44;1.30;;;0.60;;
305;SDS011;137;48.578;9.180;2023-12-20T06:31:11;0.90;;;0.60;;
305;SDS011;137;48.578;9.180;2023-12-20T06:33:38;1.10;;;0.70;;
305;SDS011;137;48.578;9.180;2023-12-20T06:36:11;1.30;;;0.80;;
305;SDS011;137;48.578;9.180;2023-12-20T06:38:40;1.67;;;0.63;;
305;SDS011;137;48.578;9.180;2023-12-20T06:41:10;2.10;;;0.90;;
305;SDS011;137;48.578;9.180;2023-12-20T06:43:39;1.10;;;0.80;;
305;SDS011;137;48.578;9.180;2023-12-20T06:46:06;1.00;;;0.70;;
305;SDS011;137;48.578;9.180;2023-12-20T06:48:33;1.10;;;0.70;;
305;SDS011;137;48.578;9.180;2023-12-20T06:51:00;1.57;;;1.13;;
305;SDS011;137;48.578;9.180;2023-12-20T06:53:27;3.73;;;1.20;;
305;SDS011;137;48.578;9.180;2023-12-20T06:55:54;1.37;;;1.17;;
305;SDS011;137;48.578;9.180;2023-12-20T06:58:23;2.50;;;0.97;;
305;SDS011;137;48.578;9.180;2023-12-20T07:00:50;2.17;;;1.20;;
305;SDS011;137;48.578;9.180;2023-12-20T07:03:17;1.30;;;0.90;;
305;SDS011;137;48.578;9.180;2023-12-20T07:05:44;1.70;;;1.43;;
305;SDS011;137;48.578;9.180;2023-12-20T07:08:11;1.43;;;1.10;;
305;SDS011;137;48.578;9.180;2023-12-20T07:10:39;1.70;;;1.30;;
305;SDS011;137;48.578;9.180;2023-12-20T07:13:06;4.30;;;1.57;;
305;SDS011;137;48.578;9.180;2023-12-20T07:15:35;2.27;;;1.37;;
305;SDS011;137;48.578;9.180;2023-12-20T07:18:02;2.07;;;1.60;;
305;SDS011;137;48.578;9.180;2023-12-20T07:20:30;2.20;;;1.90;;
305;SDS011;137;48.578;9.180;2023-12-20T07:22:57;2.80;;;1.80;;
305;SDS011;137;48.578;9.180;2023-12-20T07:25:23;5.30;;;2.10;;
305;SDS011;137;48.578;9.180;2023-12-20T07:27:50;2.23;;;1.43;;
305;SDS011;137;48.578;9.180;2023-12-20T07:30:17;2.03;;;1.10;;
305;SDS011;137;48.578;9.180;2023-12-20T07:32:45;1.87;;;1.67;;
305;SDS011;137;48.578;9.180;2023-12-20T07:35:12;1.97;;;1.40;;
305;SDS011;137;48.578;9.180;2023-12-20T07:37:39;2.87;;;1.50;;
305;SDS011;137;48.578;9.180;2023-12-20T07:40:07;1.50;;;1.13;;
305;SDS011;137;48.578;9.180;2023-12-20T07:42:35;1.33;;;1.20;;
305;SDS011;137;48.578;9.180;2023-12-20T07:45:05;3.73;;;1.13;;
305;SDS011;137;48.578;9.180;2023-12-20T07:47:32;1.40;;;1.00;;
305;SDS011;137;48.578;9.180;2023-12-20T07:49:59;2.17;;;0.90;;
305;SDS011;137;48.578;9.180;2023-12-20T07:52:29;1.33;;;1.00;;
305;SDS011;137;48.578;9.180;2023-12-20T07:54:59;2.90;;;0.90;;
305;SDS011;137;48.578;9.180;2023-12-20T07:57:28;1.00;;;0.60;;
305;SDS011;137;48.578;9.180;2023-12-20T07:59:55;0.97;;;0.60;;
305;SDS011;137;48.578;9.180;2023-12-20T08:02:23;1.10;;;0.70;;
305;SDS011;137;48.578;9.180;2023-12-20T08:04:57;1.10;;;0.60;;
305;SDS011;137;48.578;9.180;2023-12-20T08:07:26;1.17;;;0.80;;
305;SDS011;137;48.578;9.180;2023-12-20T08:09:53;1.00;;;0.73;;
305;SDS011;137;48.578;9.180;2023-12-20T08:12:21;1.33;;;0.85;;
305;SDS011;137;48.578;9.180;2023-12-20T08:17:40;1.47;;;0.70;;
305;SDS011;137;48.578;9.180;2023-12-20T08:20:09;1.20;;;0.70;;
305;SDS011;137;48.578;9.180;2023-12-20T08:22:37;1.30;;;1.17;;
305;SDS011;137;48.578;9.180;2023-12-20T08:25:04;1.00;;;0.70;;
305;SDS011;137;48.578;9.180;2023-12-20T08:27:40;1.57;;;0.73;;
305;SDS011;137;48.578;9.180;2023-12-20T08:30:10;1.33;;;0.90;;
305;SDS011;137;48.578;9.180;2023-12-20T08:32:37;1.30;;;0.97;;
305;SDS011;137;48.578;9.180;2023-12-20T08:35:14;1.30;;;0.77;;
305;SDS011;137;48.578;9.180;2023-12-20T08:37:42;1.53;;;0.80;;
305;SDS011;137;48.578;9.180;2023-12-20T08:40:10;1.20;;;0.60;;
305;SDS011;137;48.578;9.180;2023-12-20T08:42:37;2.10;;;0.70;;
305;SDS011;137;48.578;9.180;2023-12-20T08:45:04;1.47;;;0.77;;
305;SDS011;137;48.578;9.180;2023-12-20T08:47:31;1.57;;;0.70;;
305;SDS011;137;48.578;9.180;2023-12-20T08:49:58;1.00;;;0.70;;
305;SDS011;137;48.578;9.180;2023-12-20T08:52:28;1.00;;;0.70;;
305;SDS011;137;48.578;9.180;2023-12-20T08:54:54;1.43;;;0.80;;
305;SDS011;137;48.578;9.180;2023-12-20T08:57:22;1.30;;;1.10;;
305;SDS011;137;48.578;9.180;2023-12-20T08:59:50;1.00;;;0.73;;
305;SDS011;137;48.578;9.180;2023-12-20T09:02:17;1.27;;;0.80;;
305;SDS011;137;48.578;9.180;2023-12-20T09:04:44;1.10;;;0.80;;
305;SDS011;137;48.578;9.180;2023-12-20T09:07:20;1.40;;;0.90;;
305;SDS011;137;48.578;9.180;2023-12-20T09:09:49;1.03;;;0.70;;
305;SDS011;137;48.578;9.180;2023-12-20T09:12:17;1.40;;;1.20;;
305;SDS011;137;48.578;9.180;2023-12-20T09:14:44;1.83;;;1.00;;
305;SDS011;137;48.578;9.180;2023-12-20T09:17:11;4.23;;;1.20;;
305;SDS011;137;48.578;9.180;2023-12-20T09:19:38;2.47;;;1.10;;
305;SDS011;137;48.578;9.180;2023-12-20T09:22:05;2.60;;;1.23;;
305;SDS011;137;48.578;9.180;2023-12-20T09:24:32;1.50;;;1.00;;
305;SDS011;137;48.578;9.180;2023-12-20T09:27:00;2.00;;;1.30;;
305;SDS011;137;48.578;9.180;2023-12-20T09:29:27;2.50;;;1.10;;
305;SDS011;137;48.578;9.180;2023-12-20T09:31:54;3.30;;;1.23;;
305;SDS011;137;48.578;9.180;2023-12-20T09:34:22;1.83;;;1.20;;
305;SDS011;137;48.578;9.180;2023-12-20T09:36:50;1.37;;;1.07;;
305;SDS011;137;48.578;9.180;2023-12-20T09:41:43;4.40;;;1.40;;
305;SDS011;137;48.578;9.180;2023-12-20T09:44:14;3.97;;;1.33;;
305;SDS011;137;48.578;9.180;2023-12-20T09:46:43;2.97;;;1.37;;
305;SDS011;137;48.578;9.180;2023-12-20T09:49:15;1.90;;;1.10;;
305;SDS011;137;48.578;9.180;2023-12-20T09:51:44;3.57;;;1.80;;
305;SDS011;137;48.578;9.180;2023-12-20T09:54:12;2.07;;;1.30;;
305;SDS011;137;48.578;9.180;2023-12-20T09:56:41;1.80;;;1.30;;
305;SDS011;137;48.578;9.180;2023-12-20T09:59:08;1.77;;;1.00;;
305;SDS011;137;48.578;9.180;2023-12-20T10:01:36;2.50;;;1.13;;
305;SDS011;137;48.578;9.180;2023-12-20T10:04:05;3.03;;;1.17;;
305;SDS011;137;48.578;9.180;2023-12-20T10:06:34;4.00;;;1.20;;
305;SDS011;137;48.578;9.180;2023-12-20T10:09:01;2.23;;;2.00;;
305;SDS011;137;48.578;9.180;2023-12-20T10:11:29;2.60;;;1.10;;
305;SDS011;137;48.578;9.180;2023-12-20T10:13:58;4.57;;;1.23;;
305;SDS011;137;48.578;9.180;2023-12-20T10:16:26;2.77;;;1.27;;
305;SDS011;137;48.578;9.180;2023-12-20T10:18:54;6.20;;;1.87;;
305;SDS011;137;48.578;9.180;2023-12-20T10:21:22;3.50;;;2.00;;
305;SDS011;137;48.578;9.180;2023-12-20T10:23:51;4.03;;;1.40;;
305;SDS011;137;48.578;9.180;2023-12-20T10:26:21;2.70;;;1.20;;
305;SDS011;137;48.578;9.180;2023-12-20T10:28:50;5.23;;;1.33;;
305;SDS011;137;48.578;9.180;2023-12-20T10:31:27;1.60;;;1.00;;
305;SDS011;137;48.578;9.180;2023-12-20T10:33:57;5.63;;;1.60;;
305;SDS011;137;48.578;9.180;2023-12-20T10:36:25;2.60;;;1.50;;
305;SDS011;137;48.578;9.180;2023-12-20T10:38:53;2.10;;;1.10;;
305;SDS011;137;48.578;9.180;2023-12-20T10:41:23;1.77;;;1.17;;
305;SDS011;137;48.578;9.180;2023-12-20T10:43:52;4.55;;;1.67;;
305;SDS011;137;48.578;9.180;2023-12-20T10:46:21;4.57;;;1.50;;
305;SDS011;137;48.578;9.180;2023-12-20T10:48:48;3.67;;;1.17;;
305;SDS011;137;48.578;9.180;2023-12-20T10:51:19;1.93;;;1.20;;
305;SDS011;137;48.578;9.180;2023-12-20T10:53:48;2.63;;;1.10;;
305;SDS011;137;48.578;9.180;2023-12-20T10:56:15;2.60;;;1.17;;
305;SDS011;137;48.578;9.180;2023-12-20T10:58:43;1.87;;;1.03;;
305;SDS011;137;48.578;9.180;2023-12-20T11:01:11;2.20;;;1.07;;
305;SDS011;137;48.578;9.180;2023-12-20T11:03:39;2.10;;;1.30;;
305;SDS011;137;48.578;9.180;2023-12-20T11:06:13;3.00;;;1.20;;
305;SDS011;137;48.578;9.180;2023-12-20T11:09:01;2.23;;;1.47;;
305;SDS011;137;48.578;9.180;2023-12-20T11:11:39;5.60;;;1.50;;
305;SDS011;137;48.578;9.180;2023-12-20T11:14:20;2.78;;;1.70;;
305;SDS011;137;48.578;9.180;2023-12-20T11:16:51;2.33;;;1.13;;
305;SDS011;137;48.578;9.180;2023-12-20T11:19:31;1.40;;;0.90;;
305;SDS011;137;48.578;9.180;2023-12-20T11:22:00;2.03;;;1.00;;
305;SDS011;137;48.578;9.180;2023-12-20T11:24:26;1.30;;;1.00;;
305;SDS011;137;48.578;9.180;2023-12-20T11:26:55;2.97;;;1.00;;
305;SDS011;137;48.578;9.180;2023-12-20T11:29:29;7.37;;;1.50;;
305;SDS011;137;48.578;9.180;2023-12-20T11:31:56;2.60;;;1.30;;
305;SDS011;137;48.578;9.180;2023-12-20T11:34:26;1.77;;;1.30;;
305;SDS011;137;48.578;9.180;2023-12-20T11:36:57;2.47;;;1.23;;
305;SDS011;137;48.578;9.180;2023-12-20T11:39:26;1.43;;;1.10;;
305;SDS011;137;48.578;9.180;2023-12-20T11:41:56;1.47;;;0.90;;
305;SDS011;137;48.578;9.180;2023-12-20T11:44:25;3.00;;;1.30;;
305;SDS011;137;48.578;9.180;2023-12-20T11:46:54;2.80;;;1.10;;
305;SDS011;137;48.578;9.180;2023-12-20T11:49:24;2.07;;;1.10;;
305;SDS011;137;48.578;9.180;2023-12-20T11:51:51;2.97;;;1.57;;
305;SDS011;137;48.578;9.180;2023-12-20T11:54:18;2.30;;;1.10;;
305;SDS011;137;48.578;9.180;2023-12-20T11:56:46;3.73;;;1.30;;
305;SDS011;137;48.578;9.180;2023-12-20T11:59:16;4.77;;;1.47;;
305;SDS011;137;48.578;9.180;2023-12-20T12:01:47;3.97;;;1.30;;
305;SDS011;137;48.578;9.180;2023-12-20T12:04:15;1.83;;;1.20;;
305;SDS011;137;48.578;9.180;2023-12-20T12:06:42;3.23;;;1.27;;
305;SDS011;137;48.578;9.180;2023-12-20T12:09:09;2.23;;;1.20;;
305;SDS011;137;48.578;9.180;2023-12-20T12:11:36;1.23;;;1.00;;
305;SDS011;137;48.578;9.180;2023-12-20T12:14:05;1.20;;;1.00;;
305;SDS011;137;48.578;9.180;2023-12-20T12:16:33;5.73;;;1.20;;
305;SDS011;137;48.578;9.180;2023-12-20T12:18:59;1.80;;;1.00;;
305;SDS011;137;48.578;9.180;2023-12-20T12:21:26;2.67;;;1.33;;
305;SDS011;137;48.578;9.180;2023-12-20T12:23:53;2.43;;;1.30;;
305;SDS011;137;48.578;9.180;2023-12-20T12:26:20;1.50;;;1.00;;
305;SDS011;137;48.578;9.180;2023-12-20T12:28:47;1.87;;;0.90;;
305;SDS011;137;48.578;9.180;2023-12-20T12:31:18;4.70;;;1.43;;
305;SDS011;137;48.578;9.180;2023-12-20T12:33:45;7.50;;;1.80;;
305;SDS011;137;48.578;9.180;2023-12-20T12:36:12;1.40;;;1.00;;
305;SDS011;137;48.578;9.180;2023-12-20T12:38:41;2.00;;;1.10;;
305;SDS011;137;48.578;9.180;2023-12-20T12:41:08;2.50;;;1.37;;
305;SDS011;137;48.578;9.180;2023-12-20T12:43:35;1.87;;;0.97;;
305;SDS011;137;48.578;9.180;2023-12-20T12:46:02;5.90;;;1.67;;
305;SDS011;137;48.578;9.180;2023-12-20T12:48:30;1.97;;;1.10;;
305;SDS011;137;48.578;9.180;2023-12-20T12:50:57;2.37;;;1.10;;
305;SDS011;137;48.578;9.180;2023-12-20T12:53:24;1.87;;;1.20;;
305;SDS011;137;48.578;9.180;2023-12-20T12:55:52;2.50;;;1.40;;
305;SDS011;137;48.578;9.180;2023-12-20T12:58:19;4.50;;;1.10;;
305;SDS011;137;48.578;9.180;2023-12-20T13:00:47;1.60;;;1.10;;
305;SDS011;137;48.578;9.180;2023-12-20T13:03:13;1.57;;;1.13;;
305;SDS011;137;48.578;9.180;2023-12-20T13:05:42;3.87;;;1.23;;
305;SDS011;137;48.578;9.180;2023-12-20T13:08:08;2.17;;;1.80;;
305;SDS011;137;48.578;9.180;2023-12-20T13:10:37;5.50;;;1.67;;
305;SDS011;137;48.578;9.180;2023-12-20T13:13:04;2.70;;;1.30;;
305;SDS011;137;48.578;9.180;2023-12-20T13:15:30;2.37;;;1.50;;
305;SDS011;137;48.578;9.180;2023-12-20T13:17:57;3.00;;;1.20;;
305;SDS011;137;48.578;9.180;2023-12-20T13:20:25;2.30;;;1.10;;
305;SDS011;137;48.578;9.180;2023-12-20T13:22:53;3.23;;;1.60;;
305;SDS011;137;48.578;9.180;2023-12-20T13:25:19;2.70;;;1.27;;
305;SDS011;137;48.578;9.180;2023-12-20T13:27:46;3.20;;;1.27;;
305;SDS011;137;48.578;9.180;2023-12-20T13:30:13;2.70;;;1.23;;
305;SDS011;137;48.578;9.180;2023-12-20T13:32:40;5.30;;;1.70;;
305;SDS011;137;48.578;9.180;2023-12-20T13:35:07;1.70;;;1.30;;
305;SDS011;137;48.578;9.180;2023-12-20T13:37:34;3.90;;;1.20;;
305;SDS011;137;48.578;9.180;2023-12-20T13:40:03;1.60;;;1.37;;
305;SDS011;137;48.578;9.180;2023-12-20T13:42:31;2.50;;;1.27;;
305;SDS011;137;48.578;9.180;2023-12-20T13:44:57;3.80;;;1.00;;
305;SDS011;137;48.578;9.180;2023-12-20T13:47:24;5.40;;;2.27;;
305;SDS011;137;48.578;9.180;2023-12-20T13:49:51;1.77;;;1.20;;
305;SDS011;137;48.578;9.180;2023-12-20T13:52:18;4.87;;;1.83;;
305;SDS011;137;48.578;9.180;2023-12-20T13:54:45;1.80;;;0.97;;
305;SDS011;137;48.578;9.180;2023-12-20T13:57:13;2.87;;;1.00;;
305;SDS011;137;48.578;9.180;2023-12-20T13:59:39;3.63;;;1.70;;
305;SDS011;137;48.578;9.180;2023-12-20T14:02:06;3.67;;;1.17;;
305;SDS011;137;48.578;9.180;2023-12-20T14:04:33;2.63;;;1.40;;
305;SDS011;137;48.578;9.180;2023-12-20T14:06:59;2.40;;;1.50;;
305;SDS011;137;48.578;9.180;2023-12-20T14:09:26;7.23;;;1.67;;
305;SDS011;137;48.578;9.180;2023-12-20T14:11:53;4.60;;;1.40;;
305;SDS011;137;48.578;9.180;2023-12-20T14:14:21;3.50;;;1.40;;
305;SDS011;137;48.578;9.180;2023-12-20T14:16:48;3.93;;;1.10;;
305;SDS011;137;48.578;9.180;2023-12-20T14:19:16;3.03;;;1.07;;
305;SDS011;137;48.578;9.180;2023-12-20T14:21:42;1.83;;;1.03;;
305;SDS011;137;48.578;9.180;2023-12-20T14:24:10;2.50;;;1.20;;
305;SDS011;137;48.578;9.180;2023-12-20T14:26:39;3.23;;;1.27;;
305;SDS011;137;48.578;9.180;2023-12-20T14:29:06;1.73;;;1.00;;
305;SDS011;137;48.578;9.180;2023-12-20T14:31:35;3.90;;;1.00;;
305;SDS011;137;48.578;9.180;2023-12-20T14:34:04;4.50;;;1.40;;
305;SDS011;137;48.578;9.180;2023-12-20T14:36:31;6.83;;;1.33;;
305;SDS011;137;48.578;9.180;2023-12-20T14:38:58;3.77;;;1.17;;
305;SDS011;137;48.578;9.180;2023-12-20T14:41:26;2.87;;;1.20;;
305;SDS011;137;48.578;9.180;2023-12-20T14:43:53;3.40;;;1.40;;
305;SDS011;137;48.578;9.180;2023-12-20T14:46:19;3.60;;;1.60;;
305;SDS011;137;48.578;9.180;2023-12-20T14:48:47;3.33;;;1.20;;
305;SDS011;137;48.578;9.180;2023-12-20T14:51:14;5.33;;;1.20;;
305;SDS011;137;48.578;9.180;2023-12-20T14:53:41;1.60;;;1.10;;
305;SDS011;137;48.578;9.180;2023-12-20T14:56:08;2.70;;;1.00;;
305;SDS011;137;48.578;9.180;2023-12-20T14:58:34;3.73;;;1.40;;
305;SDS011;137;48.578;9.180;2023-12-20T15:01:02;3.00;;;1.00;;
305;SDS011;137;48.578;9.180;2023-12-20T15:03:29;3.93;;;1.00;;
305;SDS011;137;48.578;9.180;2023-12-20T15:05:57;3.57;;;1.10;;
305;SDS011;137;48.578;9.180;2023-12-20T15:08:24;4.13;;;1.10;;
305;SDS011;137;48.578;9.180;2023-12-20T15:10:51;3.20;;;1.30;;
305;SDS011;137;48.578;9.180;2023-12-20T15:13:18;1.53;;;1.10;;
305;SDS011;137;48.578;9.180;2023-12-20T15:15:44;4.63;;;1.20;;
305;SDS011;137;48.578;9.180;2023-12-20T15:18:12;4.10;;;1.43;;
305;SDS011;137;48.578;9.180;2023-12-20T15:20:39;7.00;;;1.40;;
305;SDS011;137;48.578;9.180;2023-12-20T15:23:10;1.97;;;1.07;;
305;SDS011;137;48.578;9.180;2023-12-20T15:25:37;2.10;;;0.87;;
305;SDS011;137;48.578;9.180;2023-12-20T15:28:04;1.90;;;0.90;;
305;SDS011;137;48.578;9.180;2023-12-20T15:30:31;3.90;;;1.10;;
305;SDS011;137;48.578;9.180;2023-12-20T15:32:58;2.77;;;1.20;;
305;SDS011;137;48.578;9.180;2023-12-20T15:35:25;3.63;;;1.40;;
305;SDS011;137;48.578;9.180;2023-12-20T15:37:52;1.10;;;0.90;;
305;SDS011;137;48.578;9.180;2023-12-20T15:40:20;1.70;;;1.23;;
305;SDS011;137;48.578;9.180;2023-12-20T15:42:47;2.43;;;1.20;;
305;SDS011;137;48.578;9.180;2023-12-20T15:45:14;1.73;;;1.10;;
305;SDS011;137;48.578;9.180;2023-12-20T15:47:40;2.80;;;0.90;;
305;SDS011;137;48.578;9.180;2023-12-20T15:50:07;2.70;;;1.30;;
305;SDS011;137;48.578;9.180;2023-12-20T15:52:34;5.30;;;1.70;;
305;SDS011;137;48.578;9.180;2023-12-20T15:55:02;1.87;;;1.20;;